Timonium, Maryland
Current Conditions -  °F | °C
As of 10:12 PM on Thursday 18 Dec 2014 (Local Time) from KMTN Reporting Station
Broken Clouds Broken Clouds  
Wind Chill: 30°   Ceiling: 3700
Heat Index: 36°   Visibility: 10mi
Dew Point: 27°   Wind: 7mph
Humidity: 70%   Direction: 270°W
Pressure: 30.11"   Gusts: NA
Location:  39.4211°N, 76.6266°W
Report Text: KMTN 190312Z AUTO 27006KT 10SM BKN037 02/M03 A3011 RMK AO2
Loading
Personal Weather Stations






























Interactive Weather Map New forecast layout! Learn more

10-Day Weather Forecast

Advertisements
Track Severe Weather on mobile